Terminal Aerodrome Forecast
Issued by NWS Atlanta, GA

Home | Current Version | Previous Version | Text Only | Print | Product List | Glossary On
Versions: 1 2 3 4 5 6 7 8 9 10 11 12 13 14 15 16 17 18 19
000
FTUS42 KFFC 251139
TAFMCN
TAF
KMCN 251139Z 2512/2612 22006KT 4SM BR BKN015
     FM251400 24007KT P6SM BKN025
     FM251600 26009G16KT P6SM SCT025 BKN060
     FM251800 29014G24KT P6SM FEW060
     FM260000 31008KT P6SM SKC
     FM260900 33004KT P6SM SKC=

USA.gov is the U.S. government's official web portal to all federal, state and local government web resources and services.